createdAt,value
2018-03-27T00:02:21.892Z,32.08
2018-03-27T00:04:50.026Z,32.45
2018-03-27T00:07:18.959Z,29.55
2018-03-27T00:09:47.103Z,34.25
2018-03-27T00:12:16.014Z,30.93
2018-03-27T00:14:45.008Z,31.60
2018-03-27T00:17:13.166Z,34.40
2018-03-27T00:19:41.302Z,32.92
2018-03-27T00:22:09.461Z,42.28
2018-03-27T00:24:42.301Z,42.47
2018-03-27T00:27:09.959Z,30.67
2018-03-27T00:29:49.909Z,28.52
2018-03-27T00:32:29.853Z,33.80
2018-03-27T00:35:09.687Z,35.67
2018-03-27T00:37:50.400Z,27.90
2018-03-27T00:40:30.246Z,30.50
2018-03-27T00:42:59.186Z,30.67
2018-03-27T00:45:28.086Z,30.92
2018-03-27T00:47:56.232Z,30.27
2018-03-27T00:50:24.733Z,30.03
2018-03-27T00:52:53.637Z,33.00
2018-03-27T00:55:21.770Z,29.02
2018-03-27T00:57:49.925Z,29.70
2018-03-27T01:00:18.069Z,29.63
2018-03-27T01:02:46.221Z,28.52
2018-03-27T01:05:14.366Z,28.02
2018-03-27T01:07:43.286Z,33.97
2018-03-27T01:10:11.421Z,31.35
2018-03-27T01:12:40.428Z,31.90
2018-03-27T01:15:08.592Z,31.90
2018-03-27T01:17:37.513Z,29.65
2018-03-27T01:20:05.639Z,33.78
2018-03-27T01:22:33.811Z,33.00
2018-03-27T01:25:01.951Z,33.97
2018-03-27T01:27:30.086Z,32.25
2018-03-27T01:29:58.238Z,31.70
2018-03-27T01:32:27.143Z,35.28
2018-03-27T01:34:56.063Z,31.65
2018-03-27T01:37:24.219Z,32.17
2018-03-27T01:39:52.407Z,31.40
2018-03-27T01:42:20.571Z,33.67
2018-03-27T01:44:48.721Z,32.58
2018-03-27T01:47:17.626Z,30.77
2018-03-27T01:49:45.792Z,33.17
2018-03-27T01:52:13.930Z,32.42
2018-03-27T01:54:42.876Z,33.25
2018-03-27T01:57:11.018Z,38.15
2018-03-27T01:59:44.655Z,33.35
2018-03-27T02:02:18.412Z,33.70
2018-03-27T02:04:52.312Z,36.47
2018-03-27T02:07:20.443Z,34.50
2018-03-27T02:09:48.604Z,35.37
2018-03-27T02:12:22.491Z,34.57
2018-03-27T02:14:56.230Z,40.12
2018-03-27T02:17:30.055Z,37.45
2018-03-27T02:20:03.926Z,36.00
2018-03-27T02:22:36.701Z,38.83
2018-03-27T02:25:04.862Z,35.97
2018-03-27T02:27:32.993Z,36.70
2018-03-27T02:30:01.912Z,39.53
2018-03-27T02:32:30.065Z,39.53
2018-03-27T02:34:58.219Z,37.72
2018-03-27T02:37:26.507Z,38.45
2018-03-27T02:39:54.630Z,39.20
2018-03-27T02:42:22.822Z,40.50
2018-03-27T02:44:51.067Z,39.70
2018-03-27T02:47:19.241Z,37.65
2018-03-27T02:49:47.382Z,41.25
2018-03-27T02:52:15.538Z,38.35
2018-03-27T02:54:43.678Z,43.60
2018-03-27T02:57:11.814Z,39.03
2018-03-27T02:59:39.951Z,39.63
2018-03-27T03:02:08.877Z,43.00
2018-03-27T03:04:37.035Z,45.17
2018-03-27T03:07:05.957Z,41.50
2018-03-27T03:09:34.105Z,42.15
2018-03-27T03:12:02.267Z,44.67
2018-03-27T03:14:30.399Z,39.50
2018-03-27T03:16:58.553Z,40.58
2018-03-27T03:19:26.722Z,40.22
2018-03-27T03:21:54.951Z,43.63
2018-03-27T03:24:23.142Z,42.70
2018-03-27T03:26:51.294Z,39.45
2018-03-27T03:29:19.439Z,42.10
2018-03-27T03:31:47.570Z,41.47
2018-03-27T03:34:15.734Z,42.15
2018-03-27T03:36:43.867Z,44.20
2018-03-27T03:39:12.013Z,37.17
2018-03-27T03:41:40.153Z,34.13
2018-03-27T03:44:08.309Z,37.63
2018-03-27T03:46:36.500Z,37.55
2018-03-27T03:49:04.669Z,33.13
2018-03-27T03:51:32.798Z,32.88
2018-03-27T03:54:00.972Z,35.90
2018-03-27T03:56:29.092Z,33.60
2018-03-27T03:58:57.234Z,31.48
2018-03-27T04:01:25.377Z,30.90
2018-03-27T04:03:53.529Z,34.85
2018-03-27T04:06:21.662Z,36.40
2018-03-27T04:08:49.835Z,32.30
2018-03-27T04:11:17.981Z,32.20
2018-03-27T04:13:46.870Z,35.65
2018-03-27T04:16:15.782Z,34.22
2018-03-27T04:18:44.046Z,35.55
2018-03-27T04:21:12.186Z,32.03
2018-03-27T04:23:40.318Z,34.72
2018-03-27T04:26:08.577Z,32.47
2018-03-27T04:28:37.458Z,34.85
2018-03-27T04:31:05.606Z,34.90
2018-03-27T04:33:33.766Z,33.15
2018-03-27T04:36:01.921Z,35.55
2018-03-27T04:38:30.055Z,34.75
2018-03-27T04:40:58.226Z,36.22
2018-03-27T04:43:26.356Z,39.10
2018-03-27T04:45:54.506Z,36.50
2018-03-27T04:48:22.657Z,39.58
2018-03-27T04:50:50.894Z,41.55
2018-03-27T04:53:19.079Z,43.20
2018-03-27T04:55:47.228Z,39.20
2018-03-27T04:58:16.131Z,43.03
2018-03-27T05:00:44.291Z,39.15
2018-03-27T05:03:13.202Z,48.92
2018-03-27T05:05:41.334Z,46.95
2018-03-27T05:08:09.492Z,41.35
2018-03-27T05:10:37.654Z,39.33
2018-03-27T05:13:05.833Z,42.97
2018-03-27T05:15:33.963Z,41.92
2018-03-27T05:18:02.117Z,41.08
2018-03-27T05:20:31.104Z,40.63
2018-03-27T05:23:00.010Z,43.10
2018-03-27T05:25:28.153Z,38.35
2018-03-27T05:27:56.299Z,42.80
2018-03-27T05:30:24.454Z,41.45
2018-03-27T05:32:52.654Z,36.42
2018-03-27T05:35:20.769Z,42.28
2018-03-27T05:37:48.923Z,41.53
2018-03-27T05:40:17.878Z,39.35
2018-03-27T05:42:46.034Z,39.53
2018-03-27T05:45:14.182Z,38.40
2018-03-27T05:47:42.336Z,38.10
2018-03-27T05:50:10.477Z,34.50
2018-03-27T05:52:38.635Z,37.78
2018-03-27T05:55:06.815Z,37.80
2018-03-27T05:57:34.951Z,34.65
2018-03-27T06:00:03.110Z,32.85
2018-03-27T06:02:31.225Z,39.15
2018-03-27T06:04:59.374Z,36.17
2018-03-27T06:07:27.519Z,32.10
2018-03-27T06:09:56.419Z,34.95
2018-03-27T06:12:24.559Z,31.37
2018-03-27T06:14:53.600Z,33.13
2018-03-27T06:17:21.731Z,31.12
2018-03-27T06:19:49.906Z,30.25
2018-03-27T06:22:18.087Z,26.62
2018-03-27T06:24:46.987Z,28.20
2018-03-27T06:27:15.214Z,29.08
2018-03-27T06:29:43.343Z,28.65
2018-03-27T06:32:11.495Z,26.50
2018-03-27T06:34:39.635Z,25.88
2018-03-27T06:37:07.815Z,25.03
2018-03-27T06:39:36.727Z,24.02
2018-03-27T06:42:04.997Z,24.63
2018-03-27T06:44:33.082Z,24.80
2018-03-27T06:47:02.083Z,23.10
2018-03-27T06:49:30.206Z,22.57
2018-03-27T06:51:59.118Z,23.23
2018-03-27T06:54:28.010Z,24.23
2018-03-27T06:56:56.157Z,22.10
2018-03-27T06:59:24.279Z,21.47
2018-03-27T07:01:52.527Z,22.37
2018-03-27T07:04:20.662Z,24.63
2018-03-27T07:06:48.800Z,24.87
2018-03-27T07:09:16.977Z,22.50
2018-03-27T07:11:45.107Z,21.57
2018-03-27T07:14:13.272Z,23.10
2018-03-27T07:16:41.398Z,23.50
2018-03-27T07:19:09.583Z,24.30
2018-03-27T07:21:37.675Z,24.33
2018-03-27T07:24:05.830Z,24.60
2018-03-27T07:26:33.957Z,26.13
2018-03-27T07:29:02.091Z,25.33
2018-03-27T07:31:30.991Z,26.63
2018-03-27T07:33:59.907Z,25.23
2018-03-27T07:36:28.040Z,29.40
2018-03-27T07:38:56.953Z,27.20
2018-03-27T07:41:25.089Z,25.70
2018-03-27T07:43:54.023Z,28.00
2018-03-27T07:46:22.158Z,25.40
2018-03-27T07:48:50.325Z,27.80
2018-03-27T07:51:18.462Z,26.90
2018-03-27T07:53:46.622Z,25.20
2018-03-27T07:56:14.758Z,27.90
2018-03-27T07:58:43.658Z,28.00
2018-03-27T08:01:12.567Z,26.87
2018-03-27T08:03:40.758Z,24.97
2018-03-27T08:06:09.020Z,26.03
2018-03-27T08:08:37.154Z,29.10
2018-03-27T08:11:06.073Z,26.53
2018-03-27T08:13:34.210Z,27.07
2018-03-27T08:16:03.114Z,26.70
2018-03-27T08:18:31.260Z,26.20
2018-03-27T08:20:59.393Z,27.30
2018-03-27T08:23:27.522Z,26.60
2018-03-27T08:25:55.659Z,25.30
2018-03-27T08:28:23.803Z,26.00
2018-03-27T08:30:51.926Z,25.17
2018-03-27T08:33:20.866Z,27.37
2018-03-27T08:35:49.002Z,23.60
2018-03-27T08:38:17.150Z,28.20
2018-03-27T08:40:46.054Z,25.77
2018-03-27T08:43:14.217Z,29.17
2018-03-27T08:45:42.338Z,22.30
2018-03-27T08:48:10.488Z,22.90
2018-03-27T08:50:38.619Z,23.87
2018-03-27T08:53:08.290Z,26.57
2018-03-27T08:55:36.499Z,27.23
2018-03-27T08:58:04.653Z,24.80
2018-03-27T09:00:32.792Z,25.40
2018-03-27T09:03:00.987Z,28.80
2018-03-27T09:05:29.137Z,26.00
2018-03-27T09:07:58.058Z,23.27
2018-03-27T09:10:26.313Z,22.07
2018-03-27T09:12:54.454Z,20.90
2018-03-27T09:15:22.598Z,21.40
2018-03-27T09:17:50.730Z,21.47
2018-03-27T09:20:18.874Z,19.87
2018-03-27T09:22:47.015Z,19.90
2018-03-27T09:25:15.176Z,19.60
2018-03-27T09:27:43.307Z,22.37
2018-03-27T09:30:11.446Z,24.53
2018-03-27T09:32:40.347Z,22.37
2018-03-27T09:35:09.307Z,23.60
2018-03-27T09:37:37.438Z,24.23
2018-03-27T09:40:05.562Z,24.60
2018-03-27T09:42:34.484Z,23.23
2018-03-27T09:45:02.621Z,26.00
2018-03-27T09:47:31.530Z,24.50
2018-03-27T09:49:59.671Z,24.93
2018-03-27T09:52:27.826Z,21.30
2018-03-27T09:54:56.007Z,20.57
2018-03-27T09:57:24.142Z,21.73
2018-03-27T09:59:52.292Z,21.97
2018-03-27T10:02:20.431Z,21.03
2018-03-27T10:04:48.565Z,27.20
2018-03-27T10:07:16.694Z,25.30
2018-03-27T10:09:45.611Z,24.53
2018-03-27T10:12:13.756Z,36.60
2018-03-27T10:14:43.009Z,30.33
2018-03-27T10:17:11.127Z,35.30
2018-03-27T10:19:40.027Z,39.87
2018-03-27T10:22:08.222Z,21.80
2018-03-27T10:24:36.322Z,27.00
2018-03-27T10:27:04.451Z,22.40
2018-03-27T10:29:32.575Z,20.80
2018-03-27T10:32:00.742Z,20.97
2018-03-27T10:34:28.866Z,18.67
2018-03-27T10:36:57.016Z,20.60
2018-03-27T10:39:26.299Z,17.10
2018-03-27T10:41:54.437Z,19.77
2018-03-27T10:44:22.577Z,20.67
2018-03-27T10:46:50.726Z,20.53
2018-03-27T10:49:18.870Z,22.43
2018-03-27T10:51:47.044Z,19.50
2018-03-27T10:54:15.182Z,20.10
2018-03-27T10:56:43.326Z,21.43
2018-03-27T10:59:11.480Z,22.07
2018-03-27T11:01:39.638Z,23.07
2018-03-27T11:04:07.797Z,18.37
2018-03-27T11:06:35.938Z,19.17
2018-03-27T11:09:04.469Z,17.87
2018-03-27T11:11:32.628Z,20.47
2018-03-27T11:14:00.775Z,19.90
2018-03-27T11:16:28.913Z,17.43
2018-03-27T11:18:57.167Z,16.60
2018-03-27T11:21:25.326Z,16.43
2018-03-27T11:23:54.231Z,15.87
2018-03-27T11:26:23.151Z,14.07
2018-03-27T11:28:51.295Z,13.23
2018-03-27T11:31:20.301Z,11.63
2018-03-27T11:33:48.433Z,9.50
2018-03-27T11:36:16.563Z,9.80
2018-03-27T11:38:44.716Z,10.07
2018-03-27T11:41:12.842Z,9.33
2018-03-27T11:43:40.964Z,8.60
2018-03-27T11:46:09.097Z,8.70
2018-03-27T11:48:37.223Z,8.07
2018-03-27T11:51:05.358Z,8.87
2018-03-27T11:53:33.497Z,8.83
2018-03-27T11:56:01.648Z,8.10
2018-03-27T11:58:29.801Z,8.50
2018-03-27T12:00:58.314Z,9.60
2018-03-27T12:03:26.440Z,10.40
2018-03-27T12:05:55.122Z,10.97
2018-03-27T12:08:24.062Z,10.13
2018-03-27T12:10:53.033Z,9.20
2018-03-27T12:13:21.194Z,10.80
2018-03-27T12:15:49.327Z,11.07
2018-03-27T12:18:17.478Z,12.20
2018-03-27T12:20:45.611Z,11.63
2018-03-27T12:23:13.754Z,12.50
2018-03-27T12:25:41.901Z,10.30
2018-03-27T12:28:10.046Z,12.43
2018-03-27T12:30:38.190Z,13.30
2018-03-27T12:33:06.348Z,11.77
2018-03-27T12:35:34.486Z,11.13
2018-03-27T12:38:02.631Z,11.50
2018-03-27T12:40:30.762Z,10.27
2018-03-27T12:42:58.917Z,13.80
2018-03-27T12:45:27.050Z,12.77
2018-03-27T12:47:55.198Z,13.93
2018-03-27T12:50:24.272Z,12.37
2018-03-27T12:52:52.420Z,13.20
2018-03-27T12:55:20.548Z,13.60
2018-03-27T12:57:48.695Z,12.43
2018-03-27T13:00:17.022Z,13.23
2018-03-27T13:02:45.321Z,14.20
2018-03-27T13:05:13.574Z,12.90
2018-03-27T13:07:41.714Z,13.73
2018-03-27T13:10:09.855Z,14.33
2018-03-27T13:12:38.021Z,14.03
2018-03-27T13:15:06.166Z,13.43
2018-03-27T13:17:34.295Z,13.93
2018-03-27T13:20:03.215Z,14.10
2018-03-27T13:22:31.342Z,13.70
2018-03-27T13:24:59.510Z,13.00
2018-03-27T13:27:27.651Z,15.63
2018-03-27T13:29:55.799Z,15.67
2018-03-27T13:32:24.011Z,16.07
2018-03-27T13:34:52.091Z,14.43
2018-03-27T13:37:20.234Z,15.23
2018-03-27T13:39:48.376Z,15.67
2018-03-27T13:42:18.307Z,17.00
2018-03-27T13:44:46.451Z,16.97
2018-03-27T13:47:14.598Z,15.97
2018-03-27T13:49:43.587Z,14.20
2018-03-27T13:52:12.503Z,14.50
2018-03-27T13:54:40.642Z,16.10
2018-03-27T13:57:08.782Z,14.73
2018-03-27T13:59:36.926Z,14.97
2018-03-27T14:02:05.081Z,14.40
2018-03-27T14:04:33.266Z,12.70
2018-03-27T14:07:01.415Z,13.57
2018-03-27T14:09:30.367Z,14.73
2018-03-27T14:11:58.513Z,16.27
2018-03-27T14:14:26.646Z,15.77
2018-03-27T14:16:56.578Z,16.97
2018-03-27T14:19:24.718Z,15.83
2018-03-27T14:21:52.879Z,16.40
2018-03-27T14:24:21.059Z,16.83
2018-03-27T14:26:50.146Z,16.53
2018-03-27T14:29:18.386Z,16.53
2018-03-27T14:31:46.510Z,16.77
2018-03-27T14:34:15.439Z,15.20
2018-03-27T14:36:43.572Z,16.63
2018-03-27T14:39:11.727Z,17.17
2018-03-27T14:41:39.854Z,14.90
2018-03-27T14:44:08.000Z,13.90
2018-03-27T14:46:36.130Z,15.40
2018-03-27T14:49:04.270Z,15.13
2018-03-27T14:51:32.421Z,14.90
2018-03-27T14:54:00.575Z,14.90
2018-03-27T14:56:28.707Z,16.07
2018-03-27T14:58:56.871Z,15.60
2018-03-27T15:01:26.998Z,15.03
2018-03-27T15:03:55.167Z,14.33
2018-03-27T15:06:23.307Z,13.67
2018-03-27T15:08:52.319Z,12.37
2018-03-27T15:11:20.474Z,13.93
2018-03-27T15:13:48.637Z,14.33
2018-03-27T15:16:16.790Z,13.70
2018-03-27T15:18:45.757Z,14.80
2018-03-27T15:21:14.666Z,13.33
2018-03-27T15:23:42.807Z,12.60
2018-03-27T15:26:10.976Z,12.90
2018-03-27T15:28:39.087Z,13.07
2018-03-27T15:31:07.239Z,14.27
2018-03-27T15:33:35.401Z,14.67
2018-03-27T15:36:03.524Z,13.90
2018-03-27T15:38:31.652Z,17.77
2018-03-27T15:41:00.587Z,15.13
2018-03-27T15:43:28.723Z,16.60
2018-03-27T15:45:56.884Z,15.17
2018-03-27T15:48:25.024Z,14.90
2018-03-27T15:50:53.201Z,13.80
2018-03-27T15:53:21.338Z,14.07
2018-03-27T15:55:49.469Z,15.27
2018-03-27T15:58:17.614Z,12.77
2018-03-27T16:00:45.750Z,12.80
2018-03-27T16:03:13.902Z,15.10
2018-03-27T16:05:42.031Z,14.10
2018-03-27T16:08:10.201Z,13.77
2018-03-27T16:10:38.331Z,12.57
2018-03-27T16:13:06.479Z,13.37
2018-03-27T16:15:34.678Z,14.40
2018-03-27T16:18:03.593Z,14.87
2018-03-27T16:20:31.739Z,14.53
2018-03-27T16:23:00.524Z,13.90
2018-03-27T16:25:28.668Z,13.47
2018-03-27T16:27:56.806Z,14.00
2018-03-27T16:30:25.728Z,14.50
2018-03-27T16:32:53.909Z,15.07
2018-03-27T16:35:22.813Z,16.27
2018-03-27T16:37:51.012Z,14.80
2018-03-27T16:40:19.110Z,14.30
2018-03-27T16:42:47.270Z,16.17
2018-03-27T16:45:16.895Z,17.60
2018-03-27T16:47:45.020Z,13.97
2018-03-27T16:50:13.215Z,14.20
2018-03-27T16:52:41.407Z,14.23
2018-03-27T16:55:09.617Z,15.00
2018-03-27T16:57:37.775Z,15.43
2018-03-27T17:00:05.986Z,17.63
2018-03-27T17:02:34.985Z,17.13
2018-03-27T17:05:03.208Z,20.50
2018-03-27T17:07:31.374Z,14.60
2018-03-27T17:09:59.507Z,16.00
2018-03-27T17:12:27.693Z,15.83
2018-03-27T17:15:07.670Z,15.77
2018-03-27T17:17:37.364Z,16.83
2018-03-27T17:20:06.422Z,30.23
2018-03-27T17:22:34.550Z,23.63
2018-03-27T17:25:02.682Z,17.00
2018-03-27T17:27:31.619Z,23.50
2018-03-27T17:30:00.595Z,16.40
2018-03-27T17:32:28.751Z,15.80
2018-03-27T17:34:57.576Z,15.70
2018-03-27T17:37:25.714Z,15.13
2018-03-27T17:39:54.759Z,15.50
2018-03-27T17:42:25.625Z,18.07
2018-03-27T17:44:55.255Z,15.60
2018-03-27T17:47:24.170Z,16.17
2018-03-27T17:49:53.825Z,16.67
2018-03-27T17:52:22.075Z,16.17
2018-03-27T17:54:50.337Z,18.17
2018-03-27T17:57:19.247Z,18.60
2018-03-27T17:59:47.449Z,21.20
2018-03-27T18:02:16.271Z,22.30
2018-03-27T18:04:44.415Z,21.43
2018-03-27T18:07:13.330Z,18.00
2018-03-27T18:09:41.640Z,21.40
2018-03-27T18:12:10.562Z,17.53
2018-03-27T18:14:38.715Z,15.30
2018-03-27T18:17:10.237Z,15.17
2018-03-27T18:19:40.891Z,18.33
2018-03-27T18:22:14.827Z,20.70
2018-03-27T18:24:50.487Z,21.60
2018-03-27T18:27:20.926Z,19.17
2018-03-27T18:29:53.908Z,18.63
2018-03-27T18:32:29.068Z,18.73
2018-03-27T18:35:01.668Z,18.30
2018-03-27T18:37:32.070Z,15.83
2018-03-27T18:40:04.306Z,15.80
2018-03-27T18:42:35.713Z,15.43
2018-03-27T18:45:07.413Z,18.57
2018-03-27T18:47:39.810Z,17.77
2018-03-27T18:50:11.680Z,18.37
2018-03-27T18:52:44.170Z,16.90
2018-03-27T18:55:14.295Z,18.17
2018-03-27T18:57:48.257Z,17.83
2018-03-27T19:00:19.356Z,17.30
2018-03-27T19:02:47.505Z,17.87
2018-03-27T19:05:16.821Z,16.90
2018-03-27T19:07:45.978Z,17.13
2018-03-27T19:10:16.972Z,17.97
2018-03-27T19:12:48.118Z,17.20
2018-03-27T19:15:21.333Z,16.27
2018-03-27T19:17:53.937Z,15.97
2018-03-27T19:20:23.418Z,17.17
2018-03-27T19:22:51.561Z,16.80
2018-03-27T19:25:19.742Z,19.43
2018-03-27T19:27:47.873Z,16.53
2018-03-27T19:30:16.018Z,18.93
2018-03-27T19:32:44.934Z,19.63
2018-03-27T19:35:13.076Z,16.53
2018-03-27T19:37:41.209Z,18.60
2018-03-27T19:40:09.610Z,18.17
2018-03-27T19:42:38.495Z,18.60
2018-03-27T19:45:06.746Z,17.57
2018-03-27T19:47:34.882Z,17.83
2018-03-27T19:50:03.299Z,19.70
2018-03-27T19:52:32.062Z,17.80
2018-03-27T19:55:00.473Z,17.60
2018-03-27T19:57:28.776Z,17.27
2018-03-27T19:59:56.958Z,18.60
2018-03-27T20:02:25.124Z,20.27
2018-03-27T20:04:53.404Z,18.53
2018-03-27T20:07:21.592Z,18.67
2018-03-27T20:09:49.683Z,18.30
2018-03-27T20:12:17.891Z,16.83
2018-03-27T20:14:46.038Z,18.83
2018-03-27T20:17:14.196Z,18.23
2018-03-27T20:19:43.104Z,17.90
2018-03-27T20:22:11.383Z,19.90
2018-03-27T20:24:39.649Z,18.43
2018-03-27T20:27:07.786Z,19.30
2018-03-27T20:29:35.936Z,18.47
2018-03-27T20:32:04.098Z,17.07
2018-03-27T20:34:33.058Z,16.07
2018-03-27T20:37:01.574Z,17.33
2018-03-27T20:39:30.454Z,17.70
2018-03-27T20:41:58.599Z,16.93
2018-03-27T20:44:26.739Z,17.60
2018-03-27T20:46:54.949Z,18.70
2018-03-27T20:49:23.077Z,22.83
2018-03-27T20:51:51.214Z,21.00
2018-03-27T20:54:19.364Z,18.80
2018-03-27T20:56:48.363Z,20.13
2018-03-27T20:59:16.547Z,20.23
2018-03-27T21:01:45.439Z,21.10
2018-03-27T21:04:13.597Z,22.00
2018-03-27T21:06:42.510Z,19.50
2018-03-27T21:09:10.718Z,23.63
2018-03-27T21:11:38.845Z,20.30
2018-03-27T21:14:07.051Z,18.00
2018-03-27T21:16:36.415Z,17.93
2018-03-27T21:19:05.021Z,18.97
2018-03-27T21:21:33.817Z,20.50
2018-03-27T21:24:01.991Z,21.70
2018-03-27T21:26:30.107Z,22.47
2018-03-27T21:28:59.014Z,21.03
2018-03-27T21:31:27.233Z,23.00
2018-03-27T21:33:55.420Z,18.90
2018-03-27T21:36:23.585Z,21.80
2018-03-27T21:38:51.712Z,21.60
2018-03-27T21:41:19.962Z,21.07
2018-03-27T21:43:48.115Z,18.80
2018-03-27T21:46:17.038Z,20.50
2018-03-27T21:48:45.187Z,20.13
2018-03-27T21:51:13.363Z,20.23
2018-03-27T21:53:41.617Z,22.43
2018-03-27T21:56:10.548Z,18.90
2018-03-27T21:58:38.734Z,18.70
2018-03-27T22:01:06.892Z,18.17
2018-03-27T22:03:39.898Z,18.20
2018-03-27T22:06:08.817Z,19.23
2018-03-27T22:08:36.944Z,18.87
2018-03-27T22:11:05.130Z,20.77
2018-03-27T22:13:33.259Z,18.07
2018-03-27T22:16:02.290Z,18.60
2018-03-27T22:18:30.423Z,16.53
2018-03-27T22:20:58.621Z,16.90
2018-03-27T22:23:26.754Z,18.27
2018-03-27T22:25:55.710Z,15.70
2018-03-27T22:28:23.841Z,17.90
2018-03-27T22:30:51.976Z,16.53
2018-03-27T22:33:20.126Z,16.50
2018-03-27T22:35:49.027Z,16.73
2018-03-27T22:38:17.174Z,17.77
2018-03-27T22:40:45.303Z,19.00
2018-03-27T22:43:13.454Z,18.03
2018-03-27T22:45:41.590Z,19.60
2018-03-27T22:48:09.755Z,18.50
2018-03-27T22:50:37.966Z,20.17
2018-03-27T22:53:06.116Z,17.60
2018-03-27T22:55:34.267Z,19.10
2018-03-27T22:58:02.433Z,18.67
2018-03-27T23:00:30.656Z,18.60
2018-03-27T23:02:58.833Z,18.57
2018-03-27T23:05:26.983Z,17.23
2018-03-27T23:07:55.110Z,19.67
2018-03-27T23:10:23.246Z,18.47
2018-03-27T23:12:51.370Z,19.50
2018-03-27T23:15:19.510Z,18.83
2018-03-27T23:17:47.638Z,19.03
2018-03-27T23:20:15.783Z,19.50
2018-03-27T23:22:43.922Z,19.43
2018-03-27T23:25:26.849Z,17.37
2018-03-27T23:28:10.859Z,17.40
2018-03-27T23:30:42.765Z,18.57
2018-03-27T23:33:10.890Z,19.80
2018-03-27T23:35:39.042Z,16.77
2018-03-27T23:38:07.178Z,17.50
2018-03-27T23:40:35.328Z,18.93
2018-03-27T23:43:04.223Z,19.30
2018-03-27T23:45:33.148Z,18.57
2018-03-27T23:48:01.274Z,18.93
2018-03-27T23:50:30.177Z,20.77
2018-03-27T23:52:58.324Z,19.93
2018-03-27T23:55:27.208Z,20.70
2018-03-27T23:57:55.357Z,21.23
